CDT,Max TemperatureF,Mean TemperatureF,Min TemperatureF,Max Dew PointF,MeanDew PointF,Min DewpointF,Max Humidity, Mean Humidity, Min Humidity, Max Sea Level PressureIn, Mean Sea Level PressureIn, Min Sea Level PressureIn, Max VisibilityMiles, Mean VisibilityMiles, Min VisibilityMiles, Max Wind SpeedMPH, Mean Wind SpeedMPH, Max Gust SpeedMPH,PrecipitationIn, CloudCover, Events, WindDirDegrees
2013-10-1,69,57,45,53,40,30,93,58,23,29.87,29.69,29.48,10,10,10,28,13,39,T,0,Rain,253
2013-10-2,57,47,37,50,43,36,100,86,71,29.99,29.94,29.88,10,9,0,13,3,15,0.09,5,Fog-Rain,195
2013-10-3,56,46,35,45,40,35,100,81,61,30.14,30.00,29.94,10,6,0,18,8,22,0.00,6,Fog,354
2013-10-4,45,43,40,40,34,32,83,75,67,30.25,30.19,30.12,10,10,10,29,21,37,T,7,Rain,8
2013-10-5,47,44,40,45,42,38,100,93,86,30.09,29.95,29.88,10,7,2,35,17,41,0.68,8,Rain,15
2013-10-6,66,50,34,44,39,32,96,69,42,29.93,29.86,29.79,10,10,10,21,8,25,0.00,4,,319
2013-10-7,63,49,34,43,39,33,92,68,43,29.95,29.86,29.73,10,10,10,13,6,16,0.00,1,,202
2013-10-8,72,58,43,51,46,40,93,69,44,29.73,29.62,29.55,10,10,10,16,6,18,0.00,3,,201
2013-10-9,68,53,38,49,43,35,93,71,48,29.97,29.91,29.76,10,10,10,10,4,15,0.00,4,,321
2013-10-10,71,58,44,54,49,42,93,73,53,29.94,29.79,29.64,10,10,10,16,7,18,0.00,4,,67
2013-10-11,69,61,53,59,55,51,90,77,63,29.65,29.45,29.24,10,9,1,32,18,39,0.37,7,Rain-Thunderstorm,144
2013-10-12,56,46,36,52,43,33,96,71,46,30.16,29.67,29.30,10,9,4,28,13,32,0.16,6,Rain,275
2013-10-13,58,46,33,38,34,30,96,66,36,30.36,30.30,30.17,10,10,10,10,4,13,T,3,,249
2013-10-14,49,46,42,45,43,39,96,86,76,30.36,30.22,30.14,10,9,6,22,10,28,0.67,8,Rain,71
2013-10-15,47,40,32,41,38,30,96,81,65,30.11,30.05,30.02,10,10,7,26,15,32,0.30,6,Rain,6
2013-10-16,62,46,30,43,36,29,92,67,42,30.01,29.85,29.76,10,10,10,17,8,22,0.00,2,,243
2013-10-17,50,40,30,41,33,27,89,69,49,29.94,29.90,29.80,10,10,10,23,13,28,T,6,,330
2013-10-18,50,39,27,36,31,25,96,73,50,29.94,29.86,29.73,10,10,10,21,8,25,0.02,4,Rain,261
2013-10-19,42,38,33,36,32,30,100,85,70,29.77,29.72,29.66,10,10,9,17,7,21,0.02,7,Rain-Snow,309
2013-10-20,40,36,31,35,31,22,100,80,59,29.96,29.76,29.62,10,7,1,25,11,32,0.17,8,Rain-Snow,12
2013-10-21,38,32,26,27,24,19,75,69,63,29.99,29.96,29.93,10,10,10,20,10,25,0.00,8,,316
2013-10-22,39,35,31,31,27,23,82,73,64,30.08,30.04,29.99,10,10,10,16,8,20,T,8,,320
2013-10-23,38,33,27,32,26,23,96,78,59,30.15,30.10,30.03,10,10,9,16,7,22,T,8,Snow,317
2013-10-24,45,37,29,32,29,26,96,76,55,30.27,30.22,30.12,10,10,10,16,8,20,0.00,7,,286
2013-10-25,60,44,27,38,29,24,92,64,36,30.22,29.92,29.70,10,10,10,31,16,40,0.00,4,,254
2013-10-26,43,37,30,30,27,24,78,66,53,30.16,30.05,29.84,10,10,10,21,10,25,0.00,4,,299
2013-10-27,46,35,24,31,26,18,82,66,50,30.38,29.97,29.70,10,10,10,29,15,35,0.00,5,,351
2013-10-28,34,25,16,18,16,14,92,70,47,30.61,30.53,30.40,10,10,10,15,9,22,0.00,3,,10
2013-10-29,38,27,16,24,18,13,92,70,48,30.50,30.31,30.13,10,10,10,7,3,8,0.00,4,,331
2013-10-30,40,37,33,36,31,26,92,81,70,30.10,29.87,29.65,10,10,10,9,4,12,0.00,8,,182
2013-10-31,52,41,29,36,34,26,85,71,56,29.64,29.49,29.40,10,10,8,15,5,18,0.00,7,,236